createdAt,value
2019-05-17T00:02:33.678Z,99.90
2019-05-17T00:05:37.614Z,99.90
2019-05-17T00:08:41.065Z,99.90
2019-05-17T00:11:44.281Z,99.90
2019-05-17T00:14:47.478Z,99.90
2019-05-17T00:17:50.575Z,99.90
2019-05-17T00:20:56.807Z,99.90
2019-05-17T00:23:59.623Z,99.90
2019-05-17T00:27:02.964Z,99.90
2019-05-17T00:30:07.138Z,99.90
2019-05-17T00:33:10.541Z,99.90
2019-05-17T00:36:13.735Z,99.90
2019-05-17T00:39:17.060Z,99.90
2019-05-17T00:42:20.334Z,99.90
2019-05-17T00:45:23.525Z,99.90
2019-05-17T00:48:26.649Z,99.90
2019-05-17T00:51:29.811Z,99.90
2019-05-17T00:54:33.101Z,99.90
2019-05-17T00:57:36.913Z,99.90
2019-05-17T01:00:40.323Z,99.90
2019-05-17T01:03:43.452Z,99.90
2019-05-17T01:06:46.996Z,99.90
2019-05-17T01:09:50.511Z,99.90
2019-05-17T01:12:53.714Z,99.90
2019-05-17T01:15:56.889Z,99.90
2019-05-17T01:19:00.108Z,99.90
2019-05-17T01:22:03.207Z,99.90
2019-05-17T01:25:06.808Z,99.90
2019-05-17T01:28:09.995Z,99.90
2019-05-17T01:31:13.190Z,99.90
2019-05-17T01:34:16.746Z,99.90
2019-05-17T01:37:19.891Z,99.90
2019-05-17T01:40:23.121Z,99.90
2019-05-17T01:43:27.353Z,99.90
2019-05-17T01:46:30.533Z,99.90
2019-05-17T01:49:36.172Z,99.90
2019-05-17T01:52:38.875Z,99.90
2019-05-17T01:55:43.051Z,99.90
2019-05-17T01:58:46.972Z,99.90
2019-05-17T02:01:51.995Z,99.90
2019-05-17T02:04:56.988Z,99.90
2019-05-17T02:08:00.030Z,99.90
2019-05-17T02:11:03.369Z,99.90
2019-05-17T02:14:07.076Z,99.90
2019-05-17T02:17:11.186Z,99.90
2019-05-17T02:20:17.071Z,99.90
2019-05-17T02:23:19.898Z,99.90
2019-05-17T02:26:23.062Z,99.90
2019-05-17T02:29:26.186Z,99.90
2019-05-17T02:32:29.387Z,99.90
2019-05-17T02:35:33.696Z,99.90
2019-05-17T02:38:38.515Z,99.90
2019-05-17T02:41:42.988Z,99.90
2019-05-17T02:44:46.565Z,99.90
2019-05-17T02:47:49.730Z,99.90
2019-05-17T02:50:53.344Z,99.90
2019-05-17T02:53:59.225Z,99.90
2019-05-17T02:57:03.610Z,99.90
2019-05-17T03:00:07.765Z,99.90
2019-05-17T03:03:13.426Z,99.90
2019-05-17T03:06:16.035Z,99.90
2019-05-17T03:09:19.198Z,99.90
2019-05-17T03:12:23.660Z,99.90
2019-05-17T03:15:27.019Z,99.90
2019-05-17T03:18:33.008Z,99.90
2019-05-17T03:21:42.663Z,99.90
2019-05-17T03:24:44.389Z,99.90
2019-05-17T03:27:47.483Z,99.90
2019-05-17T03:30:56.280Z,99.90
2019-05-17T03:33:58.015Z,99.90
2019-05-17T03:37:06.132Z,99.90
2019-05-17T03:40:23.607Z,99.90
2019-05-17T03:43:13.845Z,99.90
2019-05-17T03:46:17.172Z,99.90
2019-05-17T03:49:22.348Z,99.90
2019-05-17T03:52:25.638Z,99.90
2019-05-17T03:55:32.783Z,99.90
2019-05-17T03:58:34.075Z,99.90
2019-05-17T04:01:38.811Z,99.90
2019-05-17T04:04:42.873Z,99.90
2019-05-17T04:07:46.249Z,99.90
2019-05-17T04:10:49.392Z,99.90
2019-05-17T04:13:54.063Z,99.90
2019-05-17T04:16:58.168Z,99.90
2019-05-17T04:20:03.407Z,99.90
2019-05-17T04:23:06.230Z,99.90
2019-05-17T04:26:09.486Z,99.90
2019-05-17T04:29:13.512Z,99.90
2019-05-17T04:32:17.134Z,99.90
2019-05-17T04:35:23.005Z,99.90
2019-05-17T04:38:25.327Z,99.90
2019-05-17T04:41:41.395Z,99.90
2019-05-17T04:44:33.576Z,99.90
2019-05-17T04:47:36.770Z,99.90
2019-05-17T04:50:42.901Z,99.90
2019-05-17T04:53:46.228Z,99.90
2019-05-17T04:56:49.425Z,99.90
2019-05-17T04:59:52.727Z,99.90
2019-05-17T05:02:55.847Z,99.90
2019-05-17T05:06:02.619Z,99.90
2019-05-17T05:09:05.751Z,99.90
2019-05-17T05:12:08.886Z,99.90
2019-05-17T05:15:12.393Z,99.90
2019-05-17T05:18:15.682Z,99.90
2019-05-17T05:21:18.855Z,99.90
2019-05-17T05:24:22.237Z,99.90
2019-05-17T05:27:25.574Z,99.90
2019-05-17T05:30:28.746Z,99.90
2019-05-17T05:33:33.099Z,99.90
2019-05-17T05:36:36.627Z,99.90
2019-05-17T05:39:41.427Z,99.90
2019-05-17T05:42:44.618Z,99.90
2019-05-17T05:45:47.747Z,99.90
2019-05-17T05:48:52.236Z,99.90
2019-05-17T05:51:55.665Z,99.90
2019-05-17T05:54:58.867Z,99.90
2019-05-17T05:58:03.016Z,99.90
2019-05-17T06:01:06.278Z,99.90
2019-05-17T06:04:11.602Z,99.90
2019-05-17T06:07:14.410Z,99.90
2019-05-17T06:10:17.612Z,99.90
2019-05-17T06:13:21.824Z,99.90
2019-05-17T06:16:25.949Z,99.90
2019-05-17T06:19:31.499Z,99.90
2019-05-17T06:22:35.682Z,99.90
2019-05-17T06:25:43.133Z,99.90
2019-05-17T06:28:45.387Z,99.90
2019-05-17T06:31:48.575Z,99.90
2019-05-17T06:34:53.442Z,99.90
2019-05-17T06:37:56.574Z,99.90
2019-05-17T06:41:01.647Z,99.90
2019-05-17T06:44:04.909Z,99.90
2019-05-17T06:47:11.976Z,99.90
2019-05-17T06:50:15.394Z,99.90
2019-05-17T06:53:18.594Z,99.90
2019-05-17T06:56:22.991Z,99.90
2019-05-17T06:59:26.210Z,99.90
2019-05-17T07:02:30.848Z,99.90
2019-05-17T07:05:36.167Z,99.90
2019-05-17T07:08:44.810Z,99.90
2019-05-17T07:11:47.902Z,99.90
2019-05-17T07:14:52.603Z,99.90
2019-05-17T07:17:55.826Z,99.90
2019-05-17T07:21:02.820Z,99.90
2019-05-17T07:24:03.986Z,99.90
2019-05-17T07:27:07.182Z,99.90
2019-05-17T07:30:12.440Z,99.90
2019-05-17T07:33:15.578Z,99.90
2019-05-17T07:36:19.709Z,99.90
2019-05-17T07:39:23.007Z,99.90
2019-05-17T07:42:26.330Z,99.90
2019-05-17T07:45:29.647Z,99.90
2019-05-17T07:48:32.966Z,99.90
2019-05-17T07:51:35.989Z,99.90
2019-05-17T07:54:39.906Z,99.90
2019-05-17T07:57:43.329Z,99.90
2019-05-17T08:00:46.507Z,99.90
2019-05-17T08:03:50.132Z,99.90
2019-05-17T08:06:53.406Z,99.90
2019-05-17T08:09:56.593Z,99.90
2019-05-17T08:12:59.919Z,99.90
2019-05-17T08:16:04.305Z,99.90
2019-05-17T08:19:09.687Z,99.90
2019-05-17T08:22:12.755Z,99.90
2019-05-17T08:25:15.950Z,99.90
2019-05-17T08:28:21.384Z,99.90
2019-05-17T08:31:25.201Z,99.90
2019-05-17T08:34:29.315Z,99.90
2019-05-17T08:37:32.520Z,99.90
2019-05-17T08:40:35.755Z,99.90
2019-05-17T08:43:46.152Z,99.90
2019-05-17T08:46:44.050Z,99.90
2019-05-17T08:49:49.515Z,99.90
2019-05-17T08:52:52.178Z,99.90
2019-05-17T08:55:55.287Z,99.90
2019-05-17T08:59:00.649Z,99.90
2019-05-17T09:02:03.538Z,99.90
2019-05-17T09:05:09.669Z,99.90
2019-05-17T09:08:11.941Z,99.90
2019-05-17T09:11:15.274Z,99.90
2019-05-17T09:14:18.379Z,99.90
2019-05-17T09:17:22.594Z,99.90
2019-05-17T09:20:25.783Z,99.90
2019-05-17T09:23:30.437Z,99.90
2019-05-17T09:26:35.863Z,99.90
2019-05-17T09:29:40.464Z,99.90
2019-05-17T09:32:44.163Z,99.90
2019-05-17T09:35:49.762Z,99.90
2019-05-17T09:38:52.194Z,99.90
2019-05-17T09:41:55.386Z,99.90
2019-05-17T09:45:00.519Z,99.90
2019-05-17T09:48:03.857Z,99.90
2019-05-17T09:51:10.299Z,99.90
2019-05-17T09:54:12.954Z,99.90
2019-05-17T09:57:16.038Z,99.90
2019-05-17T10:00:21.998Z,99.90
2019-05-17T10:03:25.223Z,99.90
2019-05-17T10:06:28.519Z,99.90
2019-05-17T10:09:32.913Z,99.90
2019-05-17T10:12:36.002Z,99.90
2019-05-17T10:15:40.902Z,99.90
2019-05-17T10:18:45.062Z,99.90
2019-05-17T10:21:48.385Z,99.90
2019-05-17T10:25:21.676Z,98.40
2019-05-17T10:28:26.078Z,96.90
2019-05-17T10:31:30.399Z,97.90
2019-05-17T10:34:33.593Z,96.40
2019-05-17T10:37:36.906Z,96.20
2019-05-17T10:40:40.778Z,96.50
2019-05-17T10:43:44.494Z,95.80
2019-05-17T10:46:47.653Z,96.20
2019-05-17T10:49:50.702Z,95.50
2019-05-17T10:52:53.890Z,93.80
2019-05-17T10:55:57.118Z,90.60
2019-05-17T10:59:00.611Z,91.00
2019-05-17T11:02:04.020Z,91.20
2019-05-17T11:05:07.631Z,91.10
2019-05-17T11:08:11.066Z,90.50
2019-05-17T11:11:14.426Z,89.50
2019-05-17T11:14:17.590Z,88.40
2019-05-17T11:17:20.682Z,86.90
2019-05-17T11:20:24.116Z,87.20
2019-05-17T11:23:27.385Z,83.90
2019-05-17T11:26:30.818Z,79.30
2019-05-17T11:29:34.079Z,84.00
2019-05-17T11:32:37.279Z,88.30
2019-05-17T11:35:40.604Z,89.30
2019-05-17T11:38:43.762Z,90.80
2019-05-17T11:41:46.966Z,91.40
2019-05-17T11:44:50.231Z,92.30
2019-05-17T11:47:53.454Z,92.70
2019-05-17T11:50:56.578Z,92.70
2019-05-17T11:53:59.842Z,92.20
2019-05-17T11:57:03.043Z,90.70
2019-05-17T12:00:07.846Z,91.00
2019-05-17T12:03:10.979Z,91.10
2019-05-17T12:06:14.299Z,91.40
2019-05-17T12:09:17.462Z,91.50
2019-05-17T12:12:20.658Z,92.10
2019-05-17T12:15:23.743Z,91.20
2019-05-17T12:18:26.927Z,91.30
2019-05-17T12:21:30.171Z,92.30
2019-05-17T12:24:33.136Z,91.90
2019-05-17T12:27:36.426Z,92.80
2019-05-17T12:30:39.618Z,92.40
2019-05-17T12:33:42.713Z,92.80
2019-05-17T12:36:45.806Z,93.70
2019-05-17T12:39:48.915Z,94.30
2019-05-17T12:42:52.397Z,94.70
2019-05-17T12:46:00.607Z,93.60
2019-05-17T12:49:02.096Z,93.20
2019-05-17T12:52:05.364Z,91.20
2019-05-17T12:55:09.170Z,90.90
2019-05-17T12:58:12.483Z,90.50
2019-05-17T13:01:15.593Z,90.10
2019-05-17T13:04:18.778Z,88.00
2019-05-17T13:07:21.864Z,88.60
2019-05-17T13:10:24.853Z,86.50
2019-05-17T13:13:28.242Z,83.80
2019-05-17T13:16:33.039Z,81.70
2019-05-17T13:19:36.066Z,80.10
2019-05-17T13:22:39.377Z,79.80
2019-05-17T13:25:43.886Z,82.80
2019-05-17T13:28:47.019Z,85.50
2019-05-17T13:31:50.206Z,88.60
2019-05-17T13:34:53.438Z,89.70
2019-05-17T13:37:56.703Z,90.70
2019-05-17T13:40:59.870Z,91.90
2019-05-17T13:44:03.114Z,92.80
2019-05-17T13:47:06.294Z,92.50
2019-05-17T13:50:11.296Z,93.30
2019-05-17T13:53:14.668Z,95.40
2019-05-17T13:56:19.522Z,96.60
2019-05-17T13:59:22.827Z,97.60
2019-05-17T14:02:26.154Z,98.70
2019-05-17T14:05:29.448Z,99.90
2019-05-17T14:08:32.559Z,99.90
2019-05-17T14:11:36.680Z,99.90
2019-05-17T14:14:40.002Z,99.90
2019-05-17T14:17:43.134Z,99.90
2019-05-17T14:20:46.417Z,98.20
2019-05-17T14:23:49.698Z,95.70
2019-05-17T14:26:52.946Z,97.10
2019-05-17T14:29:56.012Z,97.20
2019-05-17T14:32:59.234Z,97.40
2019-05-17T14:36:02.332Z,97.30
2019-05-17T14:39:06.556Z,97.30
2019-05-17T14:42:09.707Z,97.90
2019-05-17T14:45:13.022Z,98.30
2019-05-17T14:48:16.232Z,97.80
2019-05-17T14:51:19.294Z,97.70
2019-05-17T14:54:22.476Z,97.40
2019-05-17T14:57:25.613Z,96.00
2019-05-17T15:00:28.775Z,95.80
2019-05-17T15:03:32.123Z,96.40
2019-05-17T15:06:35.166Z,97.10
2019-05-17T15:09:38.398Z,97.90
2019-05-17T15:12:41.594Z,97.80
2019-05-17T15:15:44.750Z,98.90
2019-05-17T15:18:47.977Z,99.50
2019-05-17T15:21:51.350Z,99.40
2019-05-17T15:24:54.556Z,99.90
2019-05-17T15:27:57.773Z,97.70
2019-05-17T15:31:00.928Z,97.20
2019-05-17T15:34:04.130Z,97.30
2019-05-17T15:37:07.454Z,94.40
2019-05-17T15:40:10.526Z,93.20
2019-05-17T15:43:13.655Z,93.20
2019-05-17T15:46:18.515Z,94.00
2019-05-17T15:49:21.741Z,95.70
2019-05-17T15:52:24.922Z,96.70
2019-05-17T15:55:28.122Z,98.10
2019-05-17T15:58:31.431Z,98.80
2019-05-17T16:01:34.615Z,99.70
2019-05-17T16:04:39.610Z,99.90
2019-05-17T16:07:42.845Z,99.90
2019-05-17T16:10:46.047Z,99.90
2019-05-17T16:13:49.248Z,99.90
2019-05-17T16:16:52.446Z,99.90
2019-05-17T16:19:55.631Z,99.90
2019-05-17T16:22:58.844Z,99.90
2019-05-17T16:26:02.057Z,99.90
2019-05-17T16:29:05.430Z,99.90
2019-05-17T16:32:08.577Z,99.90
2019-05-17T16:35:11.816Z,99.90
2019-05-17T16:38:16.777Z,99.90
2019-05-17T16:41:19.947Z,99.90
2019-05-17T16:44:23.238Z,99.90
2019-05-17T16:47:26.438Z,99.90
2019-05-17T16:50:31.233Z,99.90
2019-05-17T16:53:34.335Z,99.90
2019-05-17T16:56:37.428Z,99.90
2019-05-17T16:59:40.555Z,99.90
2019-05-17T17:02:43.745Z,99.90
2019-05-17T17:05:46.962Z,99.90
2019-05-17T17:08:50.032Z,99.90
2019-05-17T17:11:53.306Z,99.90
2019-05-17T17:14:56.422Z,99.90
2019-05-17T17:17:59.510Z,99.90
2019-05-17T17:21:02.753Z,99.90
2019-05-17T17:24:05.939Z,99.90
2019-05-17T17:27:09.002Z,99.90
2019-05-17T17:30:13.783Z,99.90
2019-05-17T17:33:17.573Z,99.90
2019-05-17T17:36:20.773Z,99.90
2019-05-17T17:39:23.971Z,99.90
2019-05-17T17:42:27.166Z,99.90
2019-05-17T17:45:30.433Z,99.90
2019-05-17T17:48:33.665Z,99.90
2019-05-17T17:51:36.923Z,99.90
2019-05-17T17:54:40.121Z,99.90
2019-05-17T17:57:43.236Z,99.90
2019-05-17T18:00:46.446Z,99.90
2019-05-17T18:03:50.657Z,99.90
2019-05-17T18:06:53.970Z,99.90
2019-05-17T18:09:57.111Z,99.90
2019-05-17T18:13:00.438Z,99.90
2019-05-17T18:16:04.647Z,99.90
2019-05-17T18:19:07.852Z,99.90
2019-05-17T18:22:11.117Z,99.90
2019-05-17T18:25:14.303Z,99.90
2019-05-17T18:28:18.386Z,99.90
2019-05-17T18:31:21.632Z,99.90
2019-05-17T18:34:24.843Z,99.90
2019-05-17T18:37:27.911Z,99.90
2019-05-17T18:40:31.030Z,99.90
2019-05-17T18:43:34.235Z,99.90
2019-05-17T18:46:37.295Z,99.90
2019-05-17T18:49:40.522Z,99.90
2019-05-17T18:52:43.307Z,99.90
2019-05-17T18:55:46.483Z,99.90
2019-05-17T18:58:49.747Z,99.90
2019-05-17T19:01:52.866Z,99.90
2019-05-17T19:04:56.088Z,99.90
2019-05-17T19:07:59.352Z,99.90
2019-05-17T19:11:04.248Z,99.90
2019-05-17T19:14:08.846Z,99.90
2019-05-17T19:17:11.858Z,99.90
2019-05-17T19:20:15.526Z,99.90
2019-05-17T19:23:18.701Z,99.90
2019-05-17T19:26:21.806Z,99.90
2019-05-17T19:29:24.938Z,99.90
2019-05-17T19:32:27.990Z,99.90
2019-05-17T19:35:31.314Z,99.90
2019-05-17T19:38:34.579Z,99.90
2019-05-17T19:41:37.915Z,99.90
2019-05-17T19:44:41.280Z,99.90
2019-05-17T19:47:44.396Z,99.90
2019-05-17T19:50:47.568Z,99.90
2019-05-17T19:53:50.758Z,99.90
2019-05-17T19:56:53.957Z,99.90
2019-05-17T19:59:57.158Z,99.90
2019-05-17T20:03:00.451Z,99.90
2019-05-17T20:06:03.823Z,99.90
2019-05-17T20:09:07.158Z,99.90
2019-05-17T20:12:10.998Z,99.90
2019-05-17T20:15:17.816Z,99.90
2019-05-17T20:18:19.403Z,99.90
2019-05-17T20:21:22.626Z,99.90
2019-05-17T20:24:25.986Z,99.90
2019-05-17T20:27:29.185Z,99.90
2019-05-17T20:30:32.646Z,99.90
2019-05-17T20:33:35.778Z,99.90
2019-05-17T20:36:39.074Z,99.90
2019-05-17T20:39:42.579Z,99.90
2019-05-17T20:42:45.978Z,99.90
2019-05-17T20:45:48.967Z,99.90
2019-05-17T20:48:51.974Z,99.90
2019-05-17T20:51:55.254Z,99.90
2019-05-17T20:54:59.343Z,99.90
2019-05-17T20:58:03.562Z,99.90
2019-05-17T21:01:06.818Z,99.90
2019-05-17T21:04:10.087Z,99.90
2019-05-17T21:07:13.431Z,99.90
2019-05-17T21:10:17.878Z,99.90
2019-05-17T21:13:21.185Z,99.90
2019-05-17T21:16:24.333Z,99.90
2019-05-17T21:19:27.298Z,99.90
2019-05-17T21:22:30.737Z,99.90
2019-05-17T21:25:33.813Z,99.90
2019-05-17T21:28:36.974Z,99.90
2019-05-17T21:31:40.315Z,99.90
2019-05-17T21:34:43.380Z,99.90
2019-05-17T21:37:46.703Z,99.90
2019-05-17T21:40:49.907Z,99.90
2019-05-17T21:43:52.818Z,99.90
2019-05-17T21:47:04.200Z,99.90
2019-05-17T21:50:00.551Z,99.90
2019-05-17T21:53:03.746Z,99.90
2019-05-17T21:56:06.983Z,99.90
2019-05-17T21:59:12.673Z,99.90
2019-05-17T22:02:15.346Z,99.90
2019-05-17T22:05:18.370Z,99.90
2019-05-17T22:08:21.566Z,99.90
2019-05-17T22:11:24.771Z,99.90
2019-05-17T22:14:28.083Z,99.90
2019-05-17T22:17:31.285Z,99.90
2019-05-17T22:20:36.146Z,99.90
2019-05-17T22:23:39.562Z,99.90
2019-05-17T22:26:42.914Z,99.90
2019-05-17T22:29:45.997Z,99.90
2019-05-17T22:32:49.319Z,99.90
2019-05-17T22:35:52.475Z,99.90
2019-05-17T22:38:56.755Z,99.90
2019-05-17T22:42:00.126Z,99.90
2019-05-17T22:45:03.395Z,99.90
2019-05-17T22:48:07.918Z,99.90
2019-05-17T22:51:11.094Z,99.90
2019-05-17T22:54:14.306Z,99.90
2019-05-17T22:58:27.796Z,99.90
2019-05-17T23:01:31.074Z,99.90
2019-05-17T23:04:34.343Z,99.90
2019-05-17T23:07:37.574Z,99.90
2019-05-17T23:10:40.774Z,99.90
2019-05-17T23:13:43.971Z,99.90
2019-05-17T23:16:51.467Z,99.90
2019-05-17T23:19:52.265Z,99.90
2019-05-17T23:22:55.398Z,99.90
2019-05-17T23:25:58.559Z,99.90
2019-05-17T23:29:01.789Z,99.90
2019-05-17T23:32:04.988Z,99.90
2019-05-17T23:35:08.557Z,99.90
2019-05-17T23:38:11.677Z,99.90
2019-05-17T23:41:14.730Z,99.90
2019-05-17T23:44:18.031Z,99.90
2019-05-17T23:47:21.266Z,99.90
2019-05-17T23:50:24.463Z,99.90
2019-05-17T23:53:27.517Z,99.90
2019-05-17T23:56:30.650Z,99.90
2019-05-17T23:59:33.864Z,99.90
